createdAt,value
2019-03-17T00:01:36.512Z,97163.85
2019-03-17T00:04:10.986Z,97167.09
2019-03-17T00:06:42.766Z,97160.27
2019-03-17T00:09:14.603Z,97163.41
2019-03-17T00:11:46.528Z,97160.66
2019-03-17T00:14:21.273Z,97161.31
2019-03-17T00:16:53.036Z,97164.97
2019-03-17T00:19:27.499Z,97159.99
2019-03-17T00:21:59.877Z,97173.80
2019-03-17T00:24:31.779Z,97169.48
2019-03-17T00:27:05.485Z,97165.14
2019-03-17T00:29:36.932Z,97177.83
2019-03-17T00:32:11.231Z,97167.09
2019-03-17T00:34:44.458Z,97163.44
2019-03-17T00:37:16.694Z,97180.06
2019-03-17T00:39:49.008Z,97185.03
2019-03-17T00:42:21.240Z,97184.67
2019-03-17T00:44:52.950Z,97179.73
2019-03-17T00:47:24.765Z,97189.28
2019-03-17T00:49:56.760Z,97186.70
2019-03-17T00:52:28.528Z,97188.07
2019-03-17T00:55:00.414Z,97192.02
2019-03-17T00:57:32.226Z,97188.36
2019-03-17T01:00:05.143Z,97185.86
2019-03-17T01:02:37.125Z,97188.70
2019-03-17T01:05:09.059Z,97192.67
2019-03-17T01:07:42.260Z,97193.12
2019-03-17T01:10:14.884Z,97184.12
2019-03-17T01:12:46.676Z,97181.90
2019-03-17T01:15:18.416Z,97181.06
2019-03-17T01:17:51.775Z,97176.96
2019-03-17T01:20:23.491Z,97175.02
2019-03-17T01:22:55.166Z,97173.83
2019-03-17T01:25:26.912Z,97182.63
2019-03-17T01:27:58.640Z,97178.04
2019-03-17T01:30:30.337Z,97175.50
2019-03-17T01:33:02.295Z,97182.58
2019-03-17T01:35:34.245Z,97192.66
2019-03-17T01:38:07.776Z,97193.59
2019-03-17T01:40:39.399Z,97196.06
2019-03-17T01:43:11.115Z,97200.58
2019-03-17T01:45:47.435Z,97190.36
2019-03-17T01:48:19.805Z,97202.30
2019-03-17T01:50:51.639Z,97194.03
2019-03-17T01:53:25.001Z,97193.05
2019-03-17T01:55:56.671Z,97197.72
2019-03-17T01:58:28.419Z,97196.88
2019-03-17T02:01:00.062Z,97202.69
2019-03-17T02:03:32.058Z,97208.00
2019-03-17T02:06:03.904Z,97215.34
2019-03-17T02:08:37.005Z,97218.09
2019-03-17T02:11:08.860Z,97218.75
2019-03-17T02:13:40.575Z,97226.20
2019-03-17T02:16:12.281Z,97227.30
2019-03-17T02:18:44.023Z,97228.41
2019-03-17T02:21:15.531Z,97228.41
2019-03-17T02:23:47.323Z,97229.03
2019-03-17T02:26:19.138Z,97228.41
2019-03-17T02:28:50.973Z,97233.45
2019-03-17T02:31:22.660Z,97232.81
2019-03-17T02:33:54.442Z,97233.38
2019-03-17T02:36:26.325Z,97236.11
2019-03-17T02:38:58.197Z,97242.66
2019-03-17T02:41:31.781Z,97247.87
2019-03-17T02:44:03.521Z,97238.97
2019-03-17T02:46:35.365Z,97236.13
2019-03-17T02:49:07.158Z,97236.48
2019-03-17T02:51:40.448Z,97235.17
2019-03-17T02:54:12.190Z,97238.40
2019-03-17T02:56:43.864Z,97241.69
2019-03-17T02:59:15.568Z,97247.31
2019-03-17T03:01:47.227Z,97250.63
2019-03-17T03:04:19.060Z,97250.43
2019-03-17T03:06:50.933Z,97248.22
2019-03-17T03:09:22.773Z,97255.03
2019-03-17T03:11:54.562Z,97260.14
2019-03-17T03:14:26.536Z,97257.09
2019-03-17T03:16:58.269Z,97263.02
2019-03-17T03:19:30.942Z,97267.42
2019-03-17T03:22:02.766Z,97269.09
2019-03-17T03:24:34.678Z,97267.23
2019-03-17T03:27:07.894Z,97265.36
2019-03-17T03:29:41.835Z,97267.19
2019-03-17T03:32:13.561Z,97279.27
2019-03-17T03:34:45.399Z,97275.23
2019-03-17T03:37:17.220Z,97282.84
2019-03-17T03:39:49.048Z,97285.12
2019-03-17T03:42:20.877Z,97283.45
2019-03-17T03:44:52.589Z,97280.04
2019-03-17T03:47:24.334Z,97281.28
2019-03-17T03:49:57.278Z,97276.09
2019-03-17T03:52:29.310Z,97286.32
2019-03-17T03:55:03.788Z,97294.48
2019-03-17T03:57:35.504Z,97294.27
2019-03-17T04:00:07.671Z,97298.97
2019-03-17T04:02:39.502Z,97297.05
2019-03-17T04:05:11.254Z,97304.50
2019-03-17T04:07:43.042Z,97303.96
2019-03-17T04:10:16.170Z,97294.27
2019-03-17T04:12:48.338Z,97297.00
2019-03-17T04:15:20.188Z,97288.64
2019-03-17T04:17:52.013Z,97290.63
2019-03-17T04:20:23.849Z,97291.16
2019-03-17T04:22:55.639Z,97290.97
2019-03-17T04:25:27.639Z,97294.63
2019-03-17T04:27:59.442Z,97305.14
2019-03-17T04:30:31.246Z,97298.12
2019-03-17T04:33:03.281Z,97296.89
2019-03-17T04:35:35.029Z,97297.64
2019-03-17T04:38:06.853Z,97294.42
2019-03-17T04:40:38.738Z,97296.09
2019-03-17T04:43:10.524Z,97291.22
2019-03-17T04:45:42.289Z,97294.27
2019-03-17T04:48:14.029Z,97295.36
2019-03-17T04:50:45.999Z,97294.47
2019-03-17T04:53:17.782Z,97301.38
2019-03-17T04:55:49.585Z,97303.59
2019-03-17T04:58:22.842Z,97300.73
2019-03-17T05:00:54.493Z,97305.17
2019-03-17T05:03:26.340Z,97308.19
2019-03-17T05:05:58.183Z,97313.23
2019-03-17T05:08:30.088Z,97320.30
2019-03-17T05:11:02.208Z,97321.27
2019-03-17T05:13:34.004Z,97331.42
2019-03-17T05:16:05.925Z,97346.17
2019-03-17T05:18:40.126Z,97345.67
2019-03-17T05:21:11.892Z,97350.92
2019-03-17T05:23:43.665Z,97347.33
2019-03-17T05:26:15.382Z,97347.98
2019-03-17T05:28:47.267Z,97338.34
2019-03-17T05:31:19.073Z,97347.58
2019-03-17T05:33:52.376Z,97350.41
2019-03-17T05:36:24.751Z,97358.42
2019-03-17T05:38:56.500Z,97364.55
2019-03-17T05:41:28.414Z,97363.55
2019-03-17T05:44:00.159Z,97376.50
2019-03-17T05:46:31.902Z,97374.58
2019-03-17T05:49:03.718Z,97379.00
2019-03-17T05:51:36.701Z,97372.18
2019-03-17T05:54:08.420Z,97389.45
2019-03-17T05:56:40.138Z,97387.16
2019-03-17T05:59:12.004Z,97396.73
2019-03-17T06:01:44.047Z,97398.38
2019-03-17T06:04:17.141Z,97396.28
2019-03-17T06:06:48.883Z,97396.73
2019-03-17T06:09:20.608Z,97402.23
2019-03-17T06:11:52.362Z,97404.31
2019-03-17T06:14:24.170Z,97410.37
2019-03-17T06:16:56.092Z,97416.81
2019-03-17T06:19:27.804Z,97419.33
2019-03-17T06:22:00.626Z,97420.89
2019-03-17T06:24:33.201Z,97416.08
2019-03-17T06:27:05.080Z,97412.77
2019-03-17T06:29:38.313Z,97406.94
2019-03-17T06:32:10.385Z,97413.66
2019-03-17T06:34:42.294Z,97405.36
2019-03-17T06:37:14.110Z,97425.81
2019-03-17T06:39:45.802Z,97426.32
2019-03-17T06:42:17.529Z,97421.59
2019-03-17T06:44:49.399Z,97412.78
2019-03-17T06:47:21.174Z,97420.53
2019-03-17T06:49:54.658Z,97424.43
2019-03-17T06:52:26.366Z,97425.04
2019-03-17T06:54:58.159Z,97423.34
2019-03-17T06:57:29.817Z,97414.15
2019-03-17T07:00:01.483Z,97418.67
2019-03-17T07:02:33.402Z,97418.25
2019-03-17T07:05:05.364Z,97419.53
2019-03-17T07:07:43.920Z,97407.88
2019-03-17T07:10:10.901Z,97414.15
2019-03-17T07:12:43.123Z,97415.55
2019-03-17T07:15:15.189Z,97421.17
2019-03-17T07:17:46.982Z,97426.06
2019-03-17T07:20:18.652Z,97426.06
2019-03-17T07:22:50.535Z,97425.70
2019-03-17T07:25:22.407Z,97425.70
2019-03-17T07:27:54.156Z,97419.10
2019-03-17T07:30:26.016Z,97419.10
2019-03-17T07:33:00.520Z,97415.38
2019-03-17T07:35:32.275Z,97402.90
2019-03-17T07:38:04.071Z,97413.21
2019-03-17T07:40:35.919Z,97413.21
2019-03-17T07:43:07.749Z,97424.99
2019-03-17T07:45:40.625Z,97413.81
2019-03-17T07:48:15.071Z,97413.81
2019-03-17T07:50:46.844Z,97423.63
2019-03-17T07:53:18.819Z,97423.81
2019-03-17T07:55:50.620Z,97421.57
2019-03-17T07:58:22.282Z,97428.11
2019-03-17T08:00:54.038Z,97428.45
2019-03-17T08:03:25.971Z,97433.42
2019-03-17T08:05:59.028Z,97424.53
2019-03-17T08:08:30.932Z,97410.02
2019-03-17T08:11:02.737Z,97415.13
2019-03-17T08:13:34.642Z,97415.13
2019-03-17T08:16:06.432Z,97435.96
2019-03-17T08:18:38.113Z,97429.80
2019-03-17T08:21:09.972Z,97438.73
2019-03-17T08:23:41.832Z,97439.77
2019-03-17T08:26:13.681Z,97441.00
2019-03-17T08:28:45.696Z,97441.59
2019-03-17T08:31:17.552Z,97446.55
2019-03-17T08:33:49.497Z,97450.31
2019-03-17T08:36:21.260Z,97449.59
2019-03-17T08:38:53.199Z,97447.64
2019-03-17T08:41:24.888Z,97455.18
2019-03-17T08:43:57.634Z,97441.27
2019-03-17T08:46:29.519Z,97445.52
2019-03-17T08:49:04.248Z,97441.38
2019-03-17T08:51:36.138Z,97450.46
2019-03-17T08:54:08.124Z,97447.48
2019-03-17T08:56:40.015Z,97447.48
2019-03-17T08:59:14.973Z,97450.11
2019-03-17T09:01:47.721Z,97464.17
2019-03-17T09:04:19.917Z,97449.66
2019-03-17T09:06:51.682Z,97453.17
2019-03-17T09:09:23.532Z,97453.66
2019-03-17T09:11:55.260Z,97450.11
2019-03-17T09:14:28.574Z,97450.59
2019-03-17T09:17:13.448Z,97439.73
2019-03-17T09:19:34.056Z,97439.73
2019-03-17T09:22:05.858Z,97436.78
2019-03-17T09:24:40.064Z,97435.80
2019-03-17T09:27:11.846Z,97430.73
2019-03-17T09:29:43.789Z,97444.78
2019-03-17T09:32:15.623Z,97429.69
2019-03-17T09:34:47.529Z,97427.95
2019-03-17T09:37:19.439Z,97433.62
2019-03-17T09:39:51.175Z,97437.81
2019-03-17T09:42:22.897Z,97431.80
2019-03-17T09:44:54.817Z,97432.86
2019-03-17T09:47:28.377Z,97438.57
2019-03-17T09:50:00.382Z,97433.61
2019-03-17T09:52:32.318Z,97422.16
2019-03-17T09:55:04.284Z,97432.45
2019-03-17T09:57:36.137Z,97423.25
2019-03-17T10:00:08.876Z,97420.38
2019-03-17T10:02:40.746Z,97419.39
2019-03-17T10:05:12.853Z,97423.05
2019-03-17T10:07:44.806Z,97430.36
2019-03-17T10:10:16.926Z,97427.78
2019-03-17T10:12:51.407Z,97424.26
2019-03-17T10:15:23.103Z,97427.53
2019-03-17T10:17:54.929Z,97435.51
2019-03-17T10:20:26.771Z,97428.48
2019-03-17T10:22:58.715Z,97408.79
2019-03-17T10:25:30.449Z,97408.16
2019-03-17T10:28:02.375Z,97406.03
2019-03-17T10:30:34.145Z,97399.78
2019-03-17T10:33:06.064Z,97398.05
2019-03-17T10:35:37.851Z,97391.38
2019-03-17T10:38:09.498Z,97390.17
2019-03-17T10:40:41.215Z,97402.22
2019-03-17T10:43:12.971Z,97388.52
2019-03-17T10:45:44.890Z,97387.02
2019-03-17T10:48:18.960Z,97388.66
2019-03-17T10:50:53.339Z,97384.38
2019-03-17T10:53:25.195Z,97390.80
2019-03-17T10:55:56.953Z,97390.62
2019-03-17T10:58:29.981Z,97379.45
2019-03-17T11:01:01.794Z,97375.71
2019-03-17T11:03:34.746Z,97376.48
2019-03-17T11:06:06.533Z,97375.47
2019-03-17T11:08:38.273Z,97372.80
2019-03-17T11:11:12.137Z,97364.98
2019-03-17T11:13:43.735Z,97364.48
2019-03-17T11:16:15.464Z,97360.94
2019-03-17T11:18:48.419Z,97366.27
2019-03-17T11:21:20.429Z,97355.72
2019-03-17T11:23:52.618Z,97345.05
2019-03-17T11:26:24.403Z,97348.72
2019-03-17T11:28:56.154Z,97341.84
2019-03-17T11:31:27.859Z,97352.00
2019-03-17T11:34:00.042Z,97343.78
2019-03-17T11:36:31.978Z,97334.13
2019-03-17T11:39:03.849Z,97336.09
2019-03-17T11:41:35.585Z,97328.31
2019-03-17T11:44:07.265Z,97335.98
2019-03-17T11:46:39.227Z,97313.17
2019-03-17T11:49:11.174Z,97315.70
2019-03-17T11:51:43.085Z,97313.52
2019-03-17T11:54:14.905Z,97306.46
2019-03-17T11:56:47.020Z,97312.98
2019-03-17T11:59:18.719Z,97325.67
2019-03-17T12:01:51.096Z,97319.64
2019-03-17T12:04:22.761Z,97318.89
2019-03-17T12:06:57.448Z,97313.50
2019-03-17T12:09:29.507Z,97314.93
2019-03-17T12:12:03.210Z,97311.56
2019-03-17T12:14:35.232Z,97297.72
2019-03-17T12:17:08.475Z,97310.92
2019-03-17T12:19:40.329Z,97304.89
2019-03-17T12:22:12.154Z,97301.08
2019-03-17T12:24:43.919Z,97306.61
2019-03-17T12:27:15.660Z,97296.02
2019-03-17T12:29:47.356Z,97289.63
2019-03-17T12:32:19.104Z,97296.59
2019-03-17T12:34:50.943Z,97303.45
2019-03-17T12:37:22.848Z,97286.80
2019-03-17T12:40:02.540Z,97293.09
2019-03-17T12:42:28.214Z,97292.98
2019-03-17T12:45:02.890Z,97292.42
2019-03-17T12:47:37.179Z,97299.70
2019-03-17T12:50:08.158Z,97296.92
2019-03-17T12:52:42.131Z,97294.50
2019-03-17T12:55:13.753Z,97296.09
2019-03-17T12:57:46.851Z,97287.34
2019-03-17T13:00:20.472Z,97278.98
2019-03-17T13:02:52.303Z,97275.42
2019-03-17T13:05:24.269Z,97284.90
2019-03-17T13:07:56.317Z,97289.17
2019-03-17T13:10:28.144Z,97284.11
2019-03-17T13:13:00.054Z,97285.55
2019-03-17T13:15:37.151Z,97280.25
2019-03-17T13:18:09.094Z,97278.36
2019-03-17T13:20:41.023Z,97279.76
2019-03-17T13:23:12.880Z,97278.59
2019-03-17T13:25:44.721Z,97280.01
2019-03-17T13:28:16.444Z,97280.20
2019-03-17T13:30:48.311Z,97269.38
2019-03-17T13:33:20.087Z,97271.73
2019-03-17T13:35:51.866Z,97272.92
2019-03-17T13:38:23.704Z,97274.02
2019-03-17T13:40:55.618Z,97264.02
2019-03-17T13:43:27.620Z,97277.91
2019-03-17T13:45:59.408Z,97266.00
2019-03-17T13:48:31.169Z,97269.55
2019-03-17T13:51:03.039Z,97270.23
2019-03-17T13:53:35.062Z,97260.70
2019-03-17T13:56:06.923Z,97258.35
2019-03-17T13:58:39.808Z,97263.78
2019-03-17T14:01:11.633Z,97263.78
2019-03-17T14:03:44.684Z,97266.59
2019-03-17T14:06:16.520Z,97268.92
2019-03-17T14:08:50.965Z,97266.82
2019-03-17T14:11:22.807Z,97259.06
2019-03-17T14:13:54.603Z,97266.94
2019-03-17T14:16:26.585Z,97266.94
2019-03-17T14:18:58.409Z,97263.88
2019-03-17T14:21:30.251Z,97260.10
2019-03-17T14:24:03.250Z,97260.10
2019-03-17T14:26:35.146Z,97275.52
2019-03-17T14:29:07.124Z,97275.52
2019-03-17T14:31:38.907Z,97266.98
2019-03-17T14:34:11.022Z,97269.84
2019-03-17T14:36:42.738Z,97267.91
2019-03-17T14:39:14.646Z,97264.48
2019-03-17T14:41:46.614Z,97262.56
2019-03-17T14:44:19.058Z,97263.03
2019-03-17T14:46:55.338Z,97266.91
2019-03-17T14:49:27.071Z,97261.68
2019-03-17T14:51:58.761Z,97265.49
2019-03-17T14:54:30.714Z,97277.45
2019-03-17T14:57:02.414Z,97264.81
2019-03-17T14:59:38.161Z,97261.23
2019-03-17T15:02:09.986Z,97262.91
2019-03-17T15:04:41.744Z,97268.88
2019-03-17T15:07:13.533Z,97266.41
2019-03-17T15:09:45.424Z,97266.92
2019-03-17T15:12:23.891Z,97265.44
2019-03-17T15:14:55.779Z,97263.11
2019-03-17T15:17:27.688Z,97268.34
2019-03-17T15:19:59.387Z,97268.86
2019-03-17T15:22:35.205Z,97272.04
2019-03-17T15:25:07.716Z,97279.41
2019-03-17T15:27:41.850Z,97279.00
2019-03-17T15:30:18.936Z,97279.00
2019-03-17T15:32:50.686Z,97270.91
2019-03-17T15:35:22.400Z,97276.84
2019-03-17T15:37:54.331Z,97285.02
2019-03-17T15:40:28.701Z,97278.05
2019-03-17T15:43:00.474Z,97278.05
2019-03-17T15:45:32.452Z,97284.94
2019-03-17T15:48:04.528Z,97285.31
2019-03-17T15:50:40.671Z,97291.70
2019-03-17T15:53:12.765Z,97293.53
2019-03-17T15:55:44.636Z,97289.29
2019-03-17T15:58:18.034Z,97292.88
2019-03-17T16:00:51.261Z,97295.59
2019-03-17T16:03:23.029Z,97298.43
2019-03-17T16:05:56.262Z,97295.36
2019-03-17T16:08:29.901Z,97296.20
2019-03-17T16:11:01.915Z,97299.00
2019-03-17T16:13:33.809Z,97296.66
2019-03-17T16:16:06.009Z,97303.02
2019-03-17T16:18:37.943Z,97303.59
2019-03-17T16:21:09.756Z,97299.72
2019-03-17T16:23:42.316Z,97302.69
2019-03-17T16:26:14.069Z,97297.86
2019-03-17T16:28:45.885Z,97302.69
2019-03-17T16:33:49.653Z,97297.48
2019-03-17T16:36:21.564Z,97244.53
2019-03-17T16:38:54.852Z,97294.64
2019-03-17T16:41:26.549Z,97305.98
2019-03-17T16:43:58.386Z,97297.52
2019-03-17T16:46:30.123Z,97296.42
2019-03-17T16:49:01.903Z,97302.23
2019-03-17T16:51:33.771Z,97315.02
2019-03-17T16:54:05.613Z,97322.98
2019-03-17T16:56:37.503Z,97316.69
2019-03-17T16:59:10.423Z,97321.31
2019-03-17T17:01:45.044Z,97326.73
2019-03-17T17:04:19.843Z,97314.55
2019-03-17T17:06:53.293Z,97317.70
2019-03-17T17:09:25.147Z,97321.12
2019-03-17T17:11:57.532Z,97320.50
2019-03-17T17:14:29.646Z,97327.34
2019-03-17T17:17:01.543Z,97319.80
2019-03-17T17:19:33.862Z,97324.63
2019-03-17T17:22:05.740Z,97310.23
2019-03-17T17:24:37.766Z,97313.35
2019-03-17T17:27:09.607Z,97314.88
2019-03-17T17:29:41.409Z,97316.58
2019-03-17T17:32:13.150Z,97318.82
2019-03-17T17:34:45.133Z,97313.35
2019-03-17T17:37:17.004Z,97317.48
2019-03-17T17:39:48.898Z,97313.62
2019-03-17T17:42:22.919Z,97321.52
2019-03-17T17:44:54.749Z,97320.11
2019-03-17T17:47:26.547Z,97323.41
2019-03-17T17:49:58.374Z,97328.27
2019-03-17T17:52:30.014Z,97324.86
2019-03-17T17:55:04.839Z,97325.30
2019-03-17T17:57:36.757Z,97328.72
2019-03-17T18:00:12.657Z,97333.20
2019-03-17T18:02:44.420Z,97333.16
2019-03-17T18:05:16.713Z,97329.62
2019-03-17T18:07:48.463Z,97332.16
2019-03-17T18:10:20.522Z,97333.17
2019-03-17T18:12:52.398Z,97330.64
2019-03-17T18:15:24.289Z,97328.32
2019-03-17T18:17:57.773Z,97332.25
2019-03-17T18:20:29.686Z,97323.00
2019-03-17T18:23:01.455Z,97331.76
2019-03-17T18:25:33.297Z,97327.52
2019-03-17T18:28:06.118Z,97327.52
2019-03-17T18:30:37.973Z,97326.36
2019-03-17T18:33:09.874Z,97322.46
2019-03-17T18:35:41.629Z,97322.66
2019-03-17T18:38:13.422Z,97319.36
2019-03-17T18:40:46.730Z,97312.58
2019-03-17T18:43:18.620Z,97322.48
2019-03-17T18:45:50.536Z,97324.41
2019-03-17T18:48:23.771Z,97327.91
2019-03-17T18:50:55.668Z,97323.77
2019-03-17T18:53:30.472Z,97323.30
2019-03-17T18:56:02.328Z,97324.47
2019-03-17T19:01:03.377Z,97312.60
2019-03-17T19:03:36.384Z,97313.58
2019-03-17T19:06:09.752Z,97313.58
2019-03-17T19:08:42.791Z,97321.89
2019-03-17T19:11:15.896Z,97315.02
2019-03-17T19:13:50.143Z,97315.00
2019-03-17T19:16:22.079Z,97308.56
2019-03-17T19:18:55.489Z,97308.73
2019-03-17T19:21:27.246Z,97312.53
2019-03-17T19:23:58.981Z,97307.03
2019-03-17T19:26:30.779Z,97307.11
2019-03-17T19:29:05.116Z,97310.98
2019-03-17T19:31:37.275Z,97310.91
2019-03-17T19:34:09.140Z,97315.34
2019-03-17T19:36:41.063Z,97314.41
2019-03-17T19:39:13.014Z,97310.54
2019-03-17T19:41:44.783Z,97310.18
2019-03-17T19:44:17.604Z,97317.20
2019-03-17T19:46:49.731Z,97313.22
2019-03-17T19:49:21.763Z,97311.09
2019-03-17T19:51:52.601Z,97307.89
2019-03-17T19:54:24.390Z,97315.64
2019-03-17T19:56:56.133Z,97316.09
2019-03-17T19:59:29.255Z,97316.78
2019-03-17T20:02:00.999Z,97317.94
2019-03-17T20:04:35.583Z,97310.35
2019-03-17T20:07:09.021Z,97312.52
2019-03-17T20:09:40.779Z,97312.36
2019-03-17T20:12:12.519Z,97312.67
2019-03-17T20:14:46.682Z,97306.98
2019-03-17T20:17:20.323Z,97308.03
2019-03-17T20:19:52.165Z,97307.84
2019-03-17T20:22:24.115Z,97306.48
2019-03-17T20:24:55.949Z,97307.23
2019-03-17T20:27:30.684Z,97302.77
2019-03-17T20:30:01.111Z,97303.86
2019-03-17T20:32:33.147Z,97303.13
2019-03-17T20:35:11.398Z,97309.08
2019-03-17T20:37:46.314Z,97303.95
2019-03-17T20:40:18.053Z,97306.80
2019-03-17T20:42:51.205Z,97307.01
2019-03-17T20:45:26.193Z,97312.81
2019-03-17T20:47:58.156Z,97298.48
2019-03-17T20:50:30.004Z,97298.48
2019-03-17T20:53:01.967Z,97297.47
2019-03-17T20:55:33.982Z,97287.37
2019-03-17T20:58:05.726Z,97283.09
2019-03-17T21:00:37.469Z,97280.77
2019-03-17T21:03:09.501Z,97283.39
2019-03-17T21:05:42.516Z,97279.11
2019-03-17T21:08:14.481Z,97271.52
2019-03-17T21:10:44.998Z,97268.98
2019-03-17T21:13:16.798Z,97265.52
2019-03-17T21:15:48.691Z,97261.03
2019-03-17T21:18:20.595Z,97261.12
2019-03-17T21:20:52.491Z,97256.40
2019-03-17T21:23:24.859Z,97256.09
2019-03-17T21:25:56.704Z,97256.83
2019-03-17T21:28:30.714Z,97253.02
2019-03-17T21:31:02.582Z,97254.88
2019-03-17T21:33:34.835Z,97255.14
2019-03-17T21:36:08.682Z,97253.22
2019-03-17T21:38:42.228Z,97250.08
2019-03-17T21:41:14.103Z,97252.00
2019-03-17T21:43:58.508Z,97252.00
2019-03-17T21:46:20.441Z,97242.25
2019-03-17T21:48:54.818Z,97242.25
2019-03-17T21:51:28.161Z,97242.25
2019-03-17T21:54:02.190Z,97235.78
2019-03-17T21:56:33.846Z,97223.91
2019-03-17T21:59:06.437Z,97230.78
2019-03-17T22:01:38.290Z,97230.20
2019-03-17T22:04:10.243Z,97227.09
2019-03-17T22:06:42.086Z,97227.11
2019-03-17T22:09:17.085Z,97227.11
2019-03-17T22:11:47.741Z,97226.58
2019-03-17T22:14:20.710Z,97232.67
2019-03-17T22:16:52.448Z,97226.33
2019-03-17T22:19:24.481Z,97222.66
2019-03-17T22:21:58.270Z,97224.05
2019-03-17T22:24:31.444Z,97219.94
2019-03-17T22:27:03.447Z,97225.76
2019-03-17T22:29:35.354Z,97218.77
2019-03-17T22:32:07.191Z,97218.77
2019-03-17T22:34:38.952Z,97223.36
2019-03-17T22:37:13.635Z,97220.20
2019-03-17T22:39:46.965Z,97225.61
2019-03-17T22:42:18.800Z,97216.23
2019-03-17T22:44:50.638Z,97216.23
2019-03-17T22:47:22.886Z,97214.61
2019-03-17T22:49:55.194Z,97214.61
2019-03-17T22:52:27.084Z,97213.52
2019-03-17T22:54:58.813Z,97213.52
2019-03-17T22:57:30.652Z,97217.60
2019-03-17T23:00:02.504Z,97215.41
2019-03-17T23:02:34.912Z,97220.25
2019-03-17T23:05:06.842Z,97218.55
2019-03-17T23:07:38.749Z,97215.33
2019-03-17T23:10:11.289Z,97212.17
2019-03-17T23:12:45.593Z,97215.79
2019-03-17T23:15:17.449Z,97218.00
2019-03-17T23:17:49.305Z,97218.12
2019-03-17T23:20:22.110Z,97220.15
2019-03-17T23:22:54.495Z,97211.28
2019-03-17T23:25:27.097Z,97211.33
2019-03-17T23:28:00.490Z,97201.44
2019-03-17T23:33:03.113Z,97211.75
2019-03-17T23:35:34.896Z,97212.52
2019-03-17T23:38:25.707Z,97210.06
2019-03-17T23:40:58.868Z,97212.50
2019-03-17T23:43:30.821Z,97217.66
2019-03-17T23:46:07.139Z,97223.70
2019-03-17T23:48:38.875Z,97218.34
2019-03-17T23:51:12.102Z,97214.94
2019-03-17T23:53:44.057Z,97205.64
2019-03-17T23:56:17.429Z,97205.30
2019-03-17T23:58:49.233Z,97209.05
